Time;durP1;ratioP1;P1;durP2;ratioP2;P2;SDS_P1;SDS_P2;PMS_P1;PMS_P2;Temp;Humidity;BMP_temperature;BMP_pressure;BME280_temperature;BME280_humidity;BME280_pressure;Samples;Min_cycle;Max_cycle;Signal;HPM_P1;HPM_P2
2023/06/21 00:00:13;;;;;;;9.13;7.10;;;;;;;23.57;74.88;99260.28;335512;28;17844;-66
2023/06/21 00:00:27;;;;;;;9.93;6.85;;;;;;;23.55;75.30;99256.94;336216;28;18820;-67
2023/06/21 00:00:39;;;;;;;10.35;7.00;;;;;;;23.51;75.51;99262.50;336171;28;17763;-67
2023/06/21 00:00:51;;;;;;;11.70;7.30;;;;;;;23.52;75.26;99258.03;340369;28;4698;-66
2023/06/21 00:01:04;;;;;;;11.20;7.55;;;;;;;23.53;75.22;99255.25;338917;28;11598;-67
2023/06/21 00:01:16;;;;;;;9.90;7.45;;;;;;;23.49;75.59;99261.81;341307;28;4636;-66
2023/06/21 00:01:30;;;;;;;9.52;7.55;;;;;;;23.50;75.18;99252.88;339048;28;13152;-67
2023/06/21 00:01:43;;;;;;;10.15;7.35;;;;;;;23.51;75.20;99257.19;341336;28;5261;-66
2023/06/21 00:01:55;;;;;;;9.98;7.00;;;;;;;23.52;75.15;99258.88;337433;28;18123;-66
2023/06/21 00:02:07;;;;;;;10.25;6.97;;;;;;;23.51;75.10;99251.06;340206;28;4617;-66
2023/06/21 00:02:19;;;;;;;11.93;7.47;;;;;;;23.50;75.42;99254.69;337203;28;17804;-66
2023/06/21 00:02:31;;;;;;;11.50;7.32;;;;;;;23.50;75.45;99254.69;339864;28;4697;-66
2023/06/21 00:02:43;;;;;;;9.52;7.03;;;;;;;23.50;75.21;99259.97;336876;28;10386;-67
2023/06/21 00:02:58;;;;;;;9.30;6.97;;;;;;;23.49;75.60;99259.16;338927;28;4988;-67
2023/06/21 00:03:10;;;;;;;9.70;7.22;;;;;;;23.47;75.62;99253.16;335749;28;18569;-67
2023/06/21 00:03:22;;;;;;;10.13;7.22;;;;;;;23.47;76.12;99249.69;338944;28;4842;-67
2023/06/21 00:03:35;;;;;;;9.40;7.18;;;;;;;23.49;75.43;99251.19;336759;28;18046;-66
2023/06/21 00:03:47;;;;;;;8.38;7.30;;;;;;;23.50;75.59;99255.53;340601;28;4777;-66
2023/06/21 00:03:59;;;;;;;8.20;7.28;;;;;;;23.49;75.82;99253.03;339015;28;18269;-66
2023/06/21 00:04:12;;;;;;;9.68;7.35;;;;;;;23.48;75.93;99252.19;341656;28;4522;-67
2023/06/21 00:04:24;;;;;;;13.38;7.93;;;;;;;23.50;75.96;99255.53;339058;28;16054;-66
2023/06/21 00:04:36;;;;;;;13.35;7.70;;;;;;;23.51;75.80;99251.91;341544;28;4626;-66
2023/06/21 00:04:52;;;;;;;12.23;7.47;;;;;;;23.52;75.88;99248.28;337806;28;11441;-67
2023/06/21 00:05:04;;;;;;;11.45;7.40;;;;;;;23.52;75.76;99253.59;337272;28;15822;-67
2023/06/21 00:05:16;;;;;;;10.70;7.20;;;;;;;23.53;75.53;99254.41;340224;28;5493;-67
2023/06/21 00:05:28;;;;;;;11.43;7.10;;;;;;;23.56;75.46;99247.97;337973;28;11728;-66
2023/06/21 00:05:40;;;;;;;12.05;7.10;;;;;;;23.58;75.29;99251.31;340142;28;5058;-66
2023/06/21 00:05:52;;;;;;;11.93;7.10;;;;;;;23.60;75.13;99249.34;339454;28;5431;-66
2023/06/21 00:06:05;;;;;;;9.02;7.03;;;;;;;23.62;75.07;99247.41;336716;28;17358;-66
2023/06/21 00:06:17;;;;;;;9.40;7.15;;;;;;;23.64;75.30;99250.75;339949;28;4695;-66
2023/06/21 00:06:29;;;;;;;11.27;7.50;;;;;;;23.65;75.18;99257.75;337485;28;11764;-67
2023/06/21 00:06:46;;;;;;;11.07;7.50;;;;;;;23.64;74.97;99250.75;340889;28;4896;-66
2023/06/21 00:06:58;;;;;;;10.48;7.72;;;;;;;23.64;75.55;99250.75;336765;28;17080;-67
2023/06/21 00:07:10;;;;;;;10.70;7.30;;;;;;;23.61;75.99;99243.09;338382;28;17248;-66
2023/06/21 00:07:23;;;;;;;10.63;7.05;;;;;;;23.62;75.45;99252.72;339867;28;4609;-67
2023/06/21 00:07:37;;;;;;;9.68;6.95;;;;;;;23.63;75.45;99249.09;338253;28;16713;-67
2023/06/21 00:07:52;;;;;;;8.77;6.85;;;;;;;23.62;75.57;99252.72;337317;28;16630;-67
2023/06/21 00:08:05;;;;;;;9.10;6.72;;;;;;;23.64;75.20;99256.06;337519;28;18335;-66
2023/06/21 00:08:17;;;;;;;9.35;6.72;;;;;;;23.66;75.04;99243.47;340345;28;4571;-67
2023/06/21 00:08:29;;;;;;;9.55;6.80;;;;;;;23.66;75.03;99248.78;338085;28;18601;-66
2023/06/21 00:08:41;;;;;;;9.55;7.03;;;;;;;23.65;74.75;99252.44;340608;28;4792;-66
2023/06/21 00:08:54;;;;;;;9.43;6.80;;;;;;;23.66;74.75;99248.78;337949;28;11476;-67
2023/06/21 00:09:06;;;;;;;8.25;6.75;;;;;;;23.67;74.62;99253.13;340383;28;4806;-66
2023/06/21 00:09:18;;;;;;;8.20;6.88;;;;;;;23.66;74.75;99260.25;340155;28;4589;-67
2023/06/21 00:09:31;;;;;;;8.30;6.82;;;;;;;23.65;74.38;99255.09;337183;28;18080;-66
2023/06/21 00:09:43;;;;;;;8.75;6.82;;;;;;;23.65;74.39;99253.25;339406;28;4728;-66
2023/06/21 00:09:55;;;;;;;9.35;6.72;;;;;;;23.64;74.44;99253.41;338722;28;18055;-66
2023/06/21 00:10:07;;;;;;;11.10;7.00;;;;;;;23.61;74.42;99251.03;340391;28;5225;-66
2023/06/21 00:10:23;;;;;;;11.65;7.20;;;;;;;23.58;74.55;99257.44;337506;28;18256;-67
2023/06/21 00:10:36;;;;;;;9.90;7.18;;;;;;;23.57;74.30;99255.78;336820;28;18101;-66
2023/06/21 00:10:49;;;;;;;8.90;6.90;;;;;;;23.56;74.41;99254.09;338831;28;4649;-66
2023/06/21 00:11:01;;;;;;;10.45;7.00;;;;;;;23.57;74.61;99252.31;336069;28;18169;-67
2023/06/21 00:11:13;;;;;;;11.68;7.30;;;;;;;23.56;74.44;99250.63;340317;28;5416;-66
2023/06/21 00:11:25;;;;;;;11.35;7.45;;;;;;;23.52;74.61;99258.88;336174;28;18368;-66
2023/06/21 00:11:38;;;;;;;9.60;7.40;;;;;;;23.48;74.70;99252.19;337982;28;4868;-66
2023/06/21 00:11:50;;;;;;;11.32;7.65;;;;;;;23.49;74.91;99253.03;336536;28;18160;-67
2023/06/21 00:12:02;;;;;;;11.93;7.45;;;;;;;23.49;75.05;99250.38;340190;28;4501;-67
2023/06/21 00:12:14;;;;;;;11.18;7.30;;;;;;;23.45;75.10;99251.63;337950;28;10844;-67
2023/06/21 00:12:27;;;;;;;11.70;7.43;;;;;;;23.41;75.31;99256.38;339726;28;5204;-66
2023/06/21 00:12:39;;;;;;;11.40;7.70;;;;;;;23.39;75.54;99253.03;338729;28;4696;-66
2023/06/21 00:12:55;;;;;;;12.82;7.60;;;;;;;23.37;75.82;99254.16;336542;28;18263;-66
2023/06/21 00:13:08;;;;;;;11.27;7.35;;;;;;;23.35;75.76;99262.25;335721;28;18625;-66
2023/06/21 00:13:20;;;;;;;10.07;7.10;;;;;;;23.37;75.50;99255.00;336267;28;19379;-67
2023/06/21 00:13:32;;;;;;;10.32;6.88;;;;;;;23.38;75.84;99261.97;339348;28;4656;-67
2023/06/21 00:13:43;;;;;;;11.18;7.22;;;;;;;23.39;75.56;99258.34;340241;28;5013;-66
2023/06/21 00:13:56;;;;;;;12.15;7.60;;;;;;;23.41;75.54;99260.84;334577;28;18097;-66
2023/06/21 00:14:09;;;;;;;9.98;7.22;;;;;;;23.42;75.50;99252.75;336167;28;4676;-67
2023/06/21 00:14:21;;;;;;;10.75;7.22;;;;;;;23.43;75.45;99258.91;335843;28;18350;-66
2023/06/21 00:14:33;;;;;;;11.10;7.35;;;;;;;23.44;75.27;99260.56;340513;28;4763;-66
2023/06/21 00:14:45;;;;;;;11.38;7.47;;;;;;;23.40;75.39;99260.03;332192;28;4761;-67
2023/06/21 00:14:57;;;;;;;9.95;7.68;;;;;;;23.39;75.78;99261.00;341903;28;5424;-66
2023/06/21 00:15:09;;;;;;;10.35;8.00;;;;;;;23.38;75.88;99261.13;337588;28;5736;-66
2023/06/21 00:15:23;;;;;;;11.68;7.70;;;;;;;23.38;75.53;99256.69;339803;28;4639;-67
2023/06/21 00:15:36;;;;;;;11.68;7.13;;;;;;;23.39;75.80;99262.81;337712;28;18353;-66
2023/06/21 00:15:50;;;;;;;9.68;6.90;;;;;;;23.39;75.84;99263.66;340852;28;4690;-67
2023/06/21 00:16:02;;;;;;;9.75;6.85;;;;;;;23.41;75.66;99256.38;338304;28;18056;-66
2023/06/21 00:16:14;;;;;;;11.82;6.75;;;;;;;23.40;75.68;99260.03;338544;28;4690;-67
2023/06/21 00:16:26;;;;;;;11.65;6.72;;;;;;;23.40;75.68;99260.03;339702;28;18478;-67
2023/06/21 00:16:38;;;;;;;11.35;6.60;;;;;;;23.40;75.78;99262.69;341220;28;4653;-67
2023/06/21 00:16:50;;;;;;;10.57;6.80;;;;;;;23.39;75.60;99266.28;336752;28;18664;-67
2023/06/21 00:17:02;;;;;;;9.25;6.82;;;;;;;23.36;75.72;99263.91;339814;28;6922;-67
2023/06/21 00:17:14;;;;;;;9.90;6.93;;;;;;;23.37;75.83;99264.78;336075;28;12056;-67
2023/06/21 00:17:26;;;;;;;9.00;7.20;;;;;;;23.31;76.05;99263.50;339790;28;4507;-67
2023/06/21 00:17:38;;;;;;;8.80;7.40;;;;;;;23.30;75.90;99269.78;340331;28;4718;-67
2023/06/21 00:17:51;;;;;;;8.95;7.63;;;;;;;23.27;76.43;99259.47;337246;28;18347;-67
2023/06/21 00:18:03;;;;;;;10.07;7.70;;;;;;;23.27;76.47;99264.78;340168;28;4651;-66
2023/06/21 00:18:15;;;;;;;11.60;7.78;;;;;;;23.24;76.69;99257.09;337647;28;18748;-66
2023/06/21 00:18:27;;;;;;;11.65;7.93;;;;;;;23.22;76.40;99261.69;340928;28;4630;-66
2023/06/21 00:18:39;;;;;;;10.48;7.90;;;;;;;23.21;76.38;99260.03;340689;28;5411;-66
2023/06/21 00:18:50;;;;;;;10.88;8.00;;;;;;;23.19;76.58;99262.81;338738;28;18197;-66
2023/06/21 00:19:02;;;;;;;12.43;8.30;;;;;;;23.17;76.56;99256.00;341022;28;4640;-66
2023/06/21 00:19:14;;;;;;;14.40;8.43;;;;;;;23.17;76.93;99258.66;337388;28;11756;-67
2023/06/21 00:19:26;;;;;;;12.73;7.95;;;;;;;23.18;76.80;99265.59;341218;28;4485;-67
2023/06/21 00:19:39;;;;;;;10.48;7.60;;;;;;;23.18;76.80;99262.94;341731;28;5193;-67
2023/06/21 00:19:54;;;;;;;9.35;7.13;;;;;;;23.19;76.53;99267.28;338894;28;18209;-67
2023/06/21 00:20:09;;;;;;;10.13;7.07;;;;;;;23.19;76.60;99259.34;337360;28;19145;-67
2023/06/21 00:20:21;;;;;;;10.43;7.55;;;;;;;23.17;76.85;99258.66;339136;28;18058;-67
2023/06/21 00:20:33;;;;;;;10.20;7.80;;;;;;;23.16;76.68;99262.25;340959;28;4697;-67
2023/06/21 00:20:46;;;;;;;11.60;8.00;;;;;;;23.15;76.88;99266.72;338511;28;18497;-67
2023/06/21 00:20:59;;;;;;;11.40;7.80;;;;;;;23.16;76.99;99256.97;339661;28;4664;-66
2023/06/21 00:21:15;;;;;;;10.32;7.75;;;;;;;23.16;76.65;99262.25;336506;28;19357;-67
2023/06/21 00:21:27;;;;;;;10.98;7.60;;;;;;;23.16;76.67;99262.25;336325;28;17723;-66
2023/06/21 00:21:39;;;;;;;11.23;7.82;;;;;;;23.16;76.82;99254.31;340998;28;5485;-66
2023/06/21 00:21:51;;;;;;;9.95;7.88;;;;;;;23.15;76.90;99255.28;331776;28;18124;-66
2023/06/21 00:22:03;;;;;;;9.25;7.65;;;;;;;23.16;76.98;99262.25;340884;28;6220;-66
2023/06/21 00:22:21;;;;;;;10.40;7.38;;;;;;;23.15;76.71;99263.25;328508;28;5515;-67
2023/06/21 00:22:35;;;;;;;10.85;7.32;;;;;;;23.13;76.85;99258.09;337856;28;16469;-67
2023/06/21 00:22:47;;;;;;;11.32;7.47;;;;;;;23.06;77.33;99255.16;337730;28;18280;-66
2023/06/21 00:22:59;;;;;;;11.02;7.65;;;;;;;23.06;77.45;99257.81;337820;28;11065;-67
2023/06/21 00:23:11;;;;;;;12.68;7.85;;;;;;;23.07;77.50;99264.78;335243;28;4861;-66
2023/06/21 00:23:24;;;;;;;11.15;7.80;;;;;;;23.07;77.35;99254.16;340534;28;5237;-67
2023/06/21 00:23:36;;;;;;;10.40;7.63;;;;;;;23.09;77.50;99260.16;334839;28;18268;-67
2023/06/21 00:23:48;;;;;;;9.63;7.45;;;;;;;23.10;77.18;99258.34;341697;28;5297;-67
2023/06/21 00:24:02;;;;;;;11.32;7.85;;;;;;;23.06;77.67;99263.13;335818;28;19227;-66
2023/06/21 00:24:15;;;;;;;13.60;8.25;;;;;;;23.07;77.15;99258.66;339397;28;5457;-67
2023/06/21 00:24:27;;;;;;;12.23;7.80;;;;;;;23.07;77.29;99259.47;342500;28;5157;-66
2023/06/21 00:24:41;;;;;;;11.82;7.70;;;;;;;23.06;77.93;99260.47;335406;28;4732;-66
2023/06/21 00:24:53;;;;;;;12.02;7.90;;;;;;;23.06;77.78;99257.81;336312;28;17772;-66
2023/06/21 00:25:07;;;;;;;11.00;7.90;;;;;;;23.05;77.26;99261.44;336510;28;18382;-67
2023/06/21 00:25:19;;;;;;;12.40;8.10;;;;;;;23.04;77.46;99257.13;341482;28;4674;-66
2023/06/21 00:25:31;;;;;;;11.50;7.90;;;;;;;23.03;77.66;99258.06;338306;28;18063;-66
2023/06/21 00:25:43;;;;;;;11.75;7.70;;;;;;;23.04;77.79;99253.59;341456;28;5462;-66
2023/06/21 00:25:54;;;;;;;13.60;7.68;;;;;;;23.02;78.03;99259.06;339984;28;11674;-67
2023/06/21 00:26:06;;;;;;;12.73;7.88;;;;;;;23.02;77.74;99252.91;342098;28;4651;-67
2023/06/21 00:26:18;;;;;;;11.80;7.67;;;;;;;23.04;77.65;99253.59;341313;28;4534;-67
2023/06/21 00:26:30;;;;;;;10.85;7.78;;;;;;;23.03;77.98;99263.38;337616;28;17923;-67
2023/06/21 00:26:42;;;;;;;10.38;7.78;;;;;;;23.01;77.93;99257.34;340585;28;4511;-66
2023/06/21 00:26:56;;;;;;;10.98;7.85;;;;;;;22.98;78.35;99260.28;338363;28;10105;-67
2023/06/21 00:27:08;;;;;;;11.48;7.57;;;;;;;22.99;78.18;99254.00;341324;28;5438;-66
2023/06/21 00:27:20;;;;;;;10.40;7.32;;;;;;;23.00;78.18;99253.03;336058;28;18095;-67
2023/06/21 00:27:32;;;;;;;9.77;7.25;;;;;;;23.00;77.89;99253.03;339481;28;4677;-67
2023/06/21 00:27:44;;;;;;;10.20;7.47;;;;;;;22.97;78.09;99250.66;337486;28;12113;-67
2023/06/21 00:27:56;;;;;;;12.15;7.93;;;;;;;22.93;78.15;99251.91;339511;28;4499;-66
2023/06/21 00:28:08;;;;;;;13.60;8.13;;;;;;;22.93;78.15;99249.25;340454;28;4683;-66
2023/06/21 00:28:20;;;;;;;12.65;7.90;;;;;;;22.93;77.94;99254.56;338333;28;18251;-67
2023/06/21 00:28:32;;;;;;;11.15;8.10;;;;;;;22.90;78.28;99247.72;339599;28;5397;-67
2023/06/21 00:28:44;;;;;;;11.45;8.10;;;;;;;22.90;78.09;99252.19;338436;28;11757;-67
2023/06/21 00:28:57;;;;;;;11.57;7.88;;;;;;;22.91;78.25;99254.69;339666;28;4654;-67
2023/06/21 00:29:11;;;;;;;10.80;7.63;;;;;;;22.88;78.73;99238.25;337207;28;18319;-67
2023/06/21 00:29:23;;;;;;;11.13;7.65;;;;;;;22.86;78.88;99250.81;340327;28;5136;-67
2023/06/21 00:29:35;;;;;;;10.23;7.63;;;;;;;22.86;78.75;99246.34;337528;28;17949;-67
2023/06/21 00:29:47;;;;;;;11.82;7.85;;;;;;;22.86;78.34;99245.50;339584;28;4635;-66
2023/06/21 00:29:59;;;;;;;12.77;7.80;;;;;;;22.84;78.33;99237.69;339298;28;4666;-67
2023/06/21 00:30:11;;;;;;;12.65;7.97;;;;;;;22.86;78.68;99240.22;340136;28;17601;-66
2023/06/21 00:30:23;;;;;;;13.35;8.05;;;;;;;22.86;78.52;99241.03;341581;28;4667;-67
2023/06/21 00:30:35;;;;;;;15.10;8.25;;;;;;;22.88;78.77;99246.19;337488;28;18295;-66
2023/06/21 00:30:47;;;;;;;12.95;7.93;;;;;;;22.89;78.54;99247.88;339485;28;4860;-67
2023/06/21 00:30:59;;;;;;;12.10;7.85;;;;;;;22.91;78.81;99245.91;337545;28;12728;-67
2023/06/21 00:31:11;;;;;;;11.45;7.80;;;;;;;22.91;78.56;99243.25;339853;28;5430;-66
2023/06/21 00:31:24;;;;;;;9.65;7.65;;;;;;;22.94;78.05;99245.66;340268;28;4749;-66
2023/06/21 00:31:36;;;;;;;9.98;7.63;;;;;;;22.94;78.01;99235.03;337113;28;18924;-67
2023/06/21 00:31:48;;;;;;;10.30;7.70;;;;;;;22.96;78.09;99241.03;339901;28;4668;-67
2023/06/21 00:32:00;;;;;;;9.63;7.40;;;;;;;22.98;78.53;99239.09;338617;28;13179;-67
2023/06/21 00:32:12;;;;;;;9.40;7.07;;;;;;;22.99;78.25;99243.41;340114;28;4817;-66
2023/06/21 00:32:24;;;;;;;10.05;6.93;;;;;;;23.00;78.17;99242.44;332989;28;5974;-66
2023/06/21 00:32:37;;;;;;;11.43;7.68;;;;;;;23.01;78.11;99238.78;337028;28;18031;-66
2023/06/21 00:32:50;;;;;;;13.23;8.13;;;;;;;23.00;78.25;99239.78;338022;28;11141;-67
2023/06/21 00:33:02;;;;;;;12.68;8.05;;;;;;;23.01;78.01;99243.25;338920;28;18181;-67
2023/06/21 00:33:14;;;;;;;10.52;7.78;;;;;;;23.01;77.85;99240.63;337045;28;11929;-67
2023/06/21 00:33:26;;;;;;;10.90;8.00;;;;;;;23.01;77.85;99245.91;341606;28;4647;-67
2023/06/21 00:33:38;;;;;;;10.73;7.88;;;;;;;23.01;77.85;99244.09;341067;28;4554;-66
2023/06/21 00:33:51;;;;;;;10.25;7.47;;;;;;;23.03;78.09;99246.66;338081;28;18250;-67
2023/06/21 00:34:03;;;;;;;9.57;7.20;;;;;;;23.03;77.87;99242.19;340495;28;5204;-67
2023/06/21 00:34:15;;;;;;;8.40;7.22;;;;;;;23.03;78.17;99250.13;337611;28;11682;-66
2023/06/21 00:34:27;;;;;;;10.98;7.50;;;;;;;23.03;78.18;99246.66;339597;28;5129;-67
2023/06/21 00:34:39;;;;;;;12.57;8.00;;;;;;;23.02;78.38;99237.00;339340;28;4600;-66
2023/06/21 00:34:51;;;;;;;12.35;7.88;;;;;;;23.03;78.17;99239.53;337754;28;19349;-67
2023/06/21 00:35:03;;;;;;;11.65;7.82;;;;;;;23.02;77.69;99244.97;339973;28;4699;-66
2023/06/21 00:35:15;;;;;;;9.73;7.80;;;;;;;23.02;77.96;99245.81;337173;28;18136;-67
2023/06/21 00:35:27;;;;;;;10.32;8.07;;;;;;;23.03;77.97;99247.47;339544;28;4648;-67
2023/06/21 00:35:39;;;;;;;11.60;8.27;;;;;;;23.04;77.69;99246.50;336614;28;8317;-67
2023/06/21 00:35:52;;;;;;;10.88;8.10;;;;;;;23.04;77.80;99243.88;339251;28;5247;-67
2023/06/21 00:36:05;;;;;;;11.35;7.65;;;;;;;23.03;78.29;99247.47;336621;28;5226;-67
2023/06/21 00:36:17;;;;;;;11.10;7.57;;;;;;;23.02;78.36;99240.50;336761;28;17787;-67
2023/06/21 00:36:29;;;;;;;12.88;7.78;;;;;;;23.01;78.20;99248.56;338552;28;4857;-66
2023/06/21 00:36:41;;;;;;;11.07;7.72;;;;;;;23.01;78.09;99244.09;333514;28;18034;-67
2023/06/21 00:36:54;;;;;;;10.02;7.68;;;;;;;23.03;78.12;99247.47;336158;28;5246;-67
2023/06/21 00:37:07;;;;;;;11.00;7.88;;;;;;;23.02;77.95;99245.81;335003;28;17476;-67
2023/06/21 00:37:19;;;;;;;11.73;8.07;;;;;;;23.03;78.17;99244.81;330808;28;5453;-67
2023/06/21 00:37:31;;;;;;;11.00;8.00;;;;;;;23.04;78.05;99243.88;337065;28;18169;-66
2023/06/21 00:37:44;;;;;;;10.90;8.10;;;;;;;23.05;78.00;99250.81;333022;28;6258;-66
2023/06/21 00:37:57;;;;;;;12.18;8.00;;;;;;;23.05;77.67;99240.22;336960;28;18321;-67
2023/06/21 00:38:12;;;;;;;12.88;7.75;;;;;;;23.08;77.84;99241.75;339899;28;5421;-66
2023/06/21 00:38:24;;;;;;;12.07;7.97;;;;;;;23.07;77.73;99243.56;337033;28;17999;-67
2023/06/21 00:38:36;;;;;;;11.70;8.02;;;;;;;23.07;77.48;99243.56;336837;28;19074;-67
2023/06/21 00:38:48;;;;;;;12.82;8.02;;;;;;;23.07;77.35;99243.56;340073;28;4687;-67
2023/06/21 00:39:00;;;;;;;13.20;7.68;;;;;;;23.08;77.60;99239.09;337435;28;18265;-66
2023/06/21 00:39:12;;;;;;;13.20;7.70;;;;;;;23.09;77.51;99246.91;337432;28;4764;-66
2023/06/21 00:39:25;;;;;;;12.70;7.97;;;;;;;23.11;77.49;99244.13;336809;28;4678;-66
2023/06/21 00:39:37;;;;;;;11.52;7.93;;;;;;;23.10;77.78;99243.31;331218;28;18300;-66
2023/06/21 00:39:49;;;;;;;10.52;7.80;;;;;;;23.11;77.64;99239.66;338803;28;4561;-67
2023/06/21 00:40:07;;;;;;;9.70;7.53;;;;;;;23.12;77.37;99241.34;335527;28;19068;-67
2023/06/21 00:40:22;;;;;;;10.82;7.20;;;;;;;23.11;78.17;99241.47;334016;28;17825;-66
2023/06/21 00:40:33;;;;;;;11.57;7.72;;;;;;;23.07;78.08;99243.56;334207;28;17897;-67
2023/06/21 00:40:49;;;;;;;10.30;7.80;;;;;;;23.08;77.95;99239.94;333796;28;17839;-67
2023/06/21 00:41:04;;;;;;;10.05;7.28;;;;;;;23.09;77.97;99241.59;334616;28;17795;-67
2023/06/21 00:41:16;;;;;;;11.90;7.30;;;;;;;23.09;77.64;99236.31;333434;28;18766;-67
2023/06/21 00:41:28;;;;;;;12.68;7.72;;;;;;;23.08;78.19;99239.94;337398;28;4752;-67
2023/06/21 00:41:41;;;;;;;13.25;8.05;;;;;;;23.06;78.07;99241.91;336173;28;4732;-66
2023/06/21 00:41:53;;;;;;;11.10;8.02;;;;;;;23.04;77.72;99243.88;339920;28;4696;-66
2023/06/21 00:42:06;;;;;;;11.50;7.93;;;;;;;22.96;77.72;99235.75;337692;28;10337;-67
2023/06/21 00:42:18;;;;;;;10.98;7.80;;;;;;;22.80;78.57;99240.72;341005;28;5506;-67
2023/06/21 00:42:30;;;;;;;10.60;7.70;;;;;;;22.71;79.06;99237.94;338484;28;18003;-67
2023/06/21 00:42:42;;;;;;;10.27;7.72;;;;;;;22.76;79.45;99240.19;340741;28;4642;-67
2023/06/21 00:42:54;;;;;;;8.85;7.40;;;;;;;22.78;79.19;99240.03;339796;28;4716;-67
2023/06/21 00:43:06;;;;;;;8.52;7.50;;;;;;;22.77;79.13;99238.38;337439;28;18204;-66
2023/06/21 00:43:18;;;;;;;9.60;7.50;;;;;;;22.79;79.05;99239.06;341654;28;5202;-66
2023/06/21 00:43:31;;;;;;;10.50;7.63;;;;;;;22.81;79.01;99237.94;338605;28;18293;-67
2023/06/21 00:43:43;;;;;;;10.98;7.78;;;;;;;22.83;78.89;99236.00;339503;28;5297;-67
2023/06/21 00:43:55;;;;;;;10.85;7.50;;;;;;;22.88;79.04;99244.38;337204;28;18318;-66
2023/06/21 00:44:08;;;;;;;9.73;7.22;;;;;;;22.90;78.85;99231.00;339935;28;4555;-66
2023/06/21 00:44:20;;;;;;;9.82;7.45;;;;;;;22.94;78.44;99240.34;338595;28;10549;-67
2023/06/21 00:44:32;;;;;;;9.18;7.50;;;;;;;22.96;78.66;99240.19;341491;28;5301;-66
2023/06/21 00:44:44;;;;;;;10.43;7.80;;;;;;;22.94;78.68;99237.69;340318;28;4538;-66
2023/06/21 00:44:56;;;;;;;10.30;7.70;;;;;;;22.95;78.34;99244.66;338259;28;19785;-67
2023/06/21 00:45:15;;;;;;;10.07;7.55;;;;;;;22.95;78.52;99239.34;339781;28;4620;-66
2023/06/21 00:45:27;;;;;;;9.15;6.97;;;;;;;22.96;78.33;99235.75;337204;28;18453;-66
2023/06/21 00:45:40;;;;;;;9.88;7.10;;;;;;;22.94;78.45;99233.22;339946;28;4940;-67
2023/06/21 00:45:54;;;;;;;13.90;7.57;;;;;;;22.94;78.38;99238.53;339851;28;18123;-67
2023/06/21 00:46:06;;;;;;;16.60;7.97;;;;;;;22.88;78.36;99238.25;338874;28;17976;-66
2023/06/21 00:46:18;;;;;;;14.82;7.82;;;;;;;22.88;78.61;99238.25;342810;28;4525;-67
2023/06/21 00:46:30;;;;;;;10.48;7.82;;;;;;;22.85;78.41;99238.50;337017;28;18251;-66
2023/06/21 00:46:42;;;;;;;9.48;7.78;;;;;;;22.82;78.51;99239.63;339598;28;5246;-67
2023/06/21 00:46:54;;;;;;;10.60;8.00;;;;;;;22.82;78.86;99244.06;340968;28;5266;-66
2023/06/21 00:47:07;;;;;;;12.63;8.10;;;;;;;22.81;79.12;99243.25;338071;28;18365;-66
2023/06/21 00:47:19;;;;;;;13.02;8.13;;;;;;;22.83;78.79;99240.47;339291;28;4571;-66
2023/06/21 00:47:31;;;;;;;12.40;7.68;;;;;;;22.84;78.91;99242.13;337441;28;18167;-67
2023/06/21 00:47:45;;;;;;;12.13;7.47;;;;;;;22.84;78.57;99242.13;339926;28;4558;-67
2023/06/21 00:47:57;;;;;;;11.95;7.70;;;;;;;22.85;78.47;99238.50;339163;28;18043;-67
2023/06/21 00:48:09;;;;;;;13.20;8.02;;;;;;;22.83;78.66;99245.75;339223;28;4664;-67
2023/06/21 00:48:22;;;;;;;13.07;8.40;;;;;;;22.80;79.17;99235.44;338676;28;18356;-67
2023/06/21 00:48:33;;;;;;;12.27;8.15;;;;;;;22.80;79.06;99246.88;340292;28;4521;-66
2023/06/21 00:48:45;;;;;;;10.13;7.93;;;;;;;22.83;78.72;99243.13;338451;28;5348;-67
2023/06/21 00:48:58;;;;;;;10.98;7.85;;;;;;;22.82;78.98;99242.28;341127;28;4659;-67
2023/06/21 00:49:10;;;;;;;11.75;8.13;;;;;;;22.78;79.01;99245.34;337432;28;18147;-67
2023/06/21 00:49:23;;;;;;;12.20;8.20;;;;;;;22.68;79.53;99248.81;340843;28;4631;-67
2023/06/21 00:49:35;;;;;;;12.05;8.27;;;;;;;22.43;80.50;99239.56;337657;28;5499;-66
2023/06/21 00:49:47;;;;;;;12.43;8.32;;;;;;;22.42;80.64;99245.00;340271;28;5399;-67
2023/06/21 00:49:59;;;;;;;12.93;8.40;;;;;;;22.46;80.54;99243.78;339966;28;4673;-67
2023/06/21 00:50:12;;;;;;;12.20;7.97;;;;;;;22.52;80.57;99243.22;337347;28;18216;-67
2023/06/21 00:50:25;;;;;;;12.40;8.38;;;;;;;22.56;80.01;99241.97;338477;28;6081;-67
2023/06/21 00:50:38;;;;;;;13.80;8.60;;;;;;;22.57;80.23;99246.28;336988;28;17442;-67
2023/06/21 00:50:50;;;;;;;11.68;8.02;;;;;;;22.58;80.46;99242.69;336240;28;18256;-67
2023/06/21 00:51:03;;;;;;;10.40;7.90;;;;;;;22.62;80.30;99238.78;338729;28;4635;-66
2023/06/21 00:51:15;;;;;;;10.82;8.10;;;;;;;22.63;80.28;99244.91;336876;28;12386;-67
2023/06/21 00:51:27;;;;;;;14.25;8.60;;;;;;;22.64;80.47;99247.41;340356;28;4671;-67
2023/06/21 00:51:39;;;;;;;14.32;8.52;;;;;;;22.67;80.25;99244.47;340389;28;5515;-67
2023/06/21 00:51:57;;;;;;;11.35;8.18;;;;;;;22.69;79.77;99250.47;338553;28;19905;-67
2023/06/21 00:52:10;;;;;;;14.40;8.52;;;;;;;22.73;79.70;99251.06;339140;28;17632;-66
2023/06/21 00:52:22;;;;;;;14.68;8.65;;;;;;;22.72;79.85;99247.56;336979;28;18518;-66
2023/06/21 00:52:37;;;;;;;14.48;8.68;;;;;;;22.76;79.47;99241.97;338984;28;4671;-66
2023/06/21 00:52:49;;;;;;;13.27;8.93;;;;;;;22.75;80.32;99243.81;337293;28;17973;-66
2023/06/21 00:53:01;;;;;;;13.60;8.88;;;;;;;22.77;80.16;99246.31;336335;28;17280;-67
2023/06/21 00:53:13;;;;;;;14.25;8.60;;;;;;;22.75;79.96;99249.09;337727;28;5335;-66
2023/06/21 00:53:29;;;;;;;13.48;8.73;;;;;;;22.73;80.03;99246.59;336285;28;16418;-67
2023/06/21 00:53:41;;;;;;;15.13;8.82;;;;;;;22.74;79.57;99242.97;337064;28;18220;-67
2023/06/21 00:53:56;;;;;;;16.60;8.85;;;;;;;22.76;79.21;99245.50;341757;28;4556;-67
2023/06/21 00:54:16;;;;;;;14.85;9.00;;;;;;;22.78;79.18;99248.84;334823;28;18143;-66
2023/06/21 00:54:35;;;;;;;11.88;8.70;;;;;;;22.84;78.87;99255.38;337755;28;17748;-67
2023/06/21 00:54:49;;;;;;;13.77;8.88;;;;;;;22.85;79.13;99249.94;333985;28;17632;-67
2023/06/21 00:55:01;;;;;;;14.98;8.98;;;;;;;22.82;79.53;99249.38;337209;28;19372;-66
2023/06/21 00:55:17;;;;;;;13.13;8.90;;;;;;;22.84;79.17;99247.44;334947;28;4747;-67
2023/06/21 00:55:29;;;;;;;11.77;8.73;;;;;;;22.82;79.13;99250.25;336742;28;18176;-66
2023/06/21 00:55:42;;;;;;;15.07;8.80;;;;;;;22.83;79.66;99245.75;337229;28;19341;-66
2023/06/21 00:55:57;;;;;;;16.52;8.68;;;;;;;22.82;79.68;99250.25;339735;28;5134;-66
2023/06/21 00:56:10;;;;;;;15.43;8.70;;;;;;;22.82;79.79;99254.69;337108;28;18238;-67
2023/06/21 00:56:22;;;;;;;13.48;8.73;;;;;;;22.82;79.60;99247.59;337632;28;18111;-67
2023/06/21 00:56:34;;;;;;;12.60;8.48;;;;;;;22.83;79.29;99251.91;340921;28;5163;-67
2023/06/21 00:56:46;;;;;;;12.55;8.38;;;;;;;22.83;79.02;99253.72;338534;28;17872;-67
2023/06/21 00:57:00;;;;;;;13.63;8.63;;;;;;;22.83;79.43;99251.06;340111;28;4726;-67
2023/06/21 00:57:12;;;;;;;14.13;8.60;;;;;;;22.84;79.35;99255.38;336876;28;18350;-67
2023/06/21 00:57:24;;;;;;;13.20;8.13;;;;;;;22.85;79.48;99254.41;339811;28;5293;-66
2023/06/21 00:57:36;;;;;;;11.50;7.97;;;;;;;22.87;79.24;99252.47;337364;28;17993;-67
2023/06/21 00:57:50;;;;;;;11.60;8.02;;;;;;;22.87;79.29;99247.16;340792;28;5207;-67
2023/06/21 00:58:02;;;;;;;14.10;8.43;;;;;;;22.88;79.21;99259.44;338661;28;18461;-67
2023/06/21 00:58:15;;;;;;;15.18;8.55;;;;;;;22.89;79.38;99255.81;341125;28;5154;-67
2023/06/21 00:58:28;;;;;;;14.50;8.53;;;;;;;22.87;79.33;99258.59;338618;28;18843;-67
2023/06/21 00:58:40;;;;;;;13.35;8.15;;;;;;;22.89;79.11;99250.50;340506;28;4653;-66
2023/06/21 00:58:52;;;;;;;11.93;8.10;;;;;;;22.90;78.82;99247.72;338725;28;17500;-66
2023/06/21 00:59:04;;;;;;;10.20;8.02;;;;;;;22.91;79.04;99253.84;341072;28;5304;-67
2023/06/21 00:59:16;;;;;;;13.70;8.27;;;;;;;22.92;78.89;99256.38;337362;28;18080;-67
2023/06/21 00:59:30;;;;;;;13.82;8.27;;;;;;;22.94;78.38;99258.91;339925;28;5452;-66
2023/06/21 00:59:42;;;;;;;12.65;7.90;;;;;;;22.95;78.36;99257.91;338605;28;18326;-67
2023/06/21 00:59:55;;;;;;;13.65;8.05;;;;;;;22.96;78.00;99259.59;337416;28;12356;-67
2023/06/21 01:00:12;;;;;;;12.55;8.02;;;;;;;22.96;78.10;99251.66;339990;28;5282;-67